sensor_id;sensor_type;location;lat;lon;timestamp;temperature;humidity
15357;DHT22;7778;48.792;9.260;2022-12-07T00:02:14;4.20;99.90
15357;DHT22;7778;48.792;9.260;2022-12-07T00:05:00;4.30;99.90
15357;DHT22;7778;48.792;9.260;2022-12-07T00:07:45;4.30;99.90
15357;DHT22;7778;48.792;9.260;2022-12-07T00:10:33;4.20;99.90
15357;DHT22;7778;48.792;9.260;2022-12-07T00:13:18;4.30;99.90
15357;DHT22;7778;48.792;9.260;2022-12-07T00:16:06;4.20;99.90
15357;DHT22;7778;48.792;9.260;2022-12-07T00:18:55;4.20;99.90
15357;DHT22;7778;48.792;9.260;2022-12-07T00:21:41;4.20;99.90
15357;DHT22;7778;48.792;9.260;2022-12-07T00:24:27;4.30;99.90
15357;DHT22;7778;48.792;9.260;2022-12-07T00:27:13;4.20;99.90
15357;DHT22;7778;48.792;9.260;2022-12-07T00:29:58;4.20;99.90
15357;DHT22;7778;48.792;9.260;2022-12-07T00:32:44;4.20;99.90
15357;DHT22;7778;48.792;9.260;2022-12-07T00:35:30;4.10;99.90
15357;DHT22;7778;48.792;9.260;2022-12-07T00:38:16;4.00;99.90
15357;DHT22;7778;48.792;9.260;2022-12-07T00:41:03;4.00;99.90
15357;DHT22;7778;48.792;9.260;2022-12-07T00:43:51;4.00;99.90
15357;DHT22;7778;48.792;9.260;2022-12-07T00:46:36;4.10;99.90
15357;DHT22;7778;48.792;9.260;2022-12-07T00:49:22;4.10;99.90
15357;DHT22;7778;48.792;9.260;2022-12-07T00:52:09;4.20;99.90
15357;DHT22;7778;48.792;9.260;2022-12-07T00:54:54;4.20;99.90
15357;DHT22;7778;48.792;9.260;2022-12-07T00:57:40;4.20;99.90
15357;DHT22;7778;48.792;9.260;2022-12-07T01:00:25;4.20;99.90
15357;DHT22;7778;48.792;9.260;2022-12-07T01:03:12;4.20;99.90
15357;DHT22;7778;48.792;9.260;2022-12-07T01:05:59;4.20;99.90
15357;DHT22;7778;48.792;9.260;2022-12-07T01:08:46;4.20;99.90
15357;DHT22;7778;48.792;9.260;2022-12-07T01:11:32;4.20;99.90
15357;DHT22;7778;48.792;9.260;2022-12-07T01:14:18;4.20;99.90
15357;DHT22;7778;48.792;9.260;2022-12-07T01:17:03;4.20;99.90
15357;DHT22;7778;48.792;9.260;2022-12-07T01:19:49;4.20;99.90
15357;DHT22;7778;48.792;9.260;2022-12-07T01:22:36;4.20;99.90
15357;DHT22;7778;48.792;9.260;2022-12-07T01:25:24;4.10;99.90
15357;DHT22;7778;48.792;9.260;2022-12-07T01:28:09;4.20;99.90
15357;DHT22;7778;48.792;9.260;2022-12-07T01:30:57;4.10;99.90
15357;DHT22;7778;48.792;9.260;2022-12-07T01:33:45;4.00;99.90
15357;DHT22;7778;48.792;9.260;2022-12-07T01:36:32;4.00;99.90
15357;DHT22;7778;48.792;9.260;2022-12-07T01:39:19;4.10;99.90
15357;DHT22;7778;48.792;9.260;2022-12-07T01:42:08;4.20;99.90
15357;DHT22;7778;48.792;9.260;2022-12-07T01:48:31;4.00;99.90
15357;DHT22;7778;48.792;9.260;2022-12-07T01:51:18;4.00;99.90
15357;DHT22;7778;48.792;9.260;2022-12-07T01:54:03;3.90;99.90
15357;DHT22;7778;48.792;9.260;2022-12-07T01:56:51;3.90;99.90
15357;DHT22;7778;48.792;9.260;2022-12-07T01:59:40;4.00;99.90
15357;DHT22;7778;48.792;9.260;2022-12-07T02:02:30;4.00;99.90
15357;DHT22;7778;48.792;9.260;2022-12-07T02:05:18;4.00;99.90
15357;DHT22;7778;48.792;9.260;2022-12-07T02:08:05;4.00;99.90
15357;DHT22;7778;48.792;9.260;2022-12-07T02:10:51;4.10;99.90
15357;DHT22;7778;48.792;9.260;2022-12-07T02:13:38;4.00;99.90
15357;DHT22;7778;48.792;9.260;2022-12-07T02:16:34;4.10;99.90
15357;DHT22;7778;48.792;9.260;2022-12-07T02:19:39;4.00;99.90
15357;DHT22;7778;48.792;9.260;2022-12-07T02:26:39;4.20;99.90
15357;DHT22;7778;48.792;9.260;2022-12-07T02:29:37;4.00;99.90
15357;DHT22;7778;48.792;9.260;2022-12-07T02:32:27;4.00;99.90
15357;DHT22;7778;48.792;9.260;2022-12-07T02:35:21;4.00;99.90
15357;DHT22;7778;48.792;9.260;2022-12-07T02:38:13;4.00;99.90
15357;DHT22;7778;48.792;9.260;2022-12-07T02:41:06;4.00;99.90
15357;DHT22;7778;48.792;9.260;2022-12-07T02:43:55;4.10;99.90
15357;DHT22;7778;48.792;9.260;2022-12-07T02:46:47;4.10;99.90
15357;DHT22;7778;48.792;9.260;2022-12-07T02:49:37;4.20;99.90
15357;DHT22;7778;48.792;9.260;2022-12-07T02:52:24;4.20;99.90
15357;DHT22;7778;48.792;9.260;2022-12-07T02:55:09;4.20;99.90
15357;DHT22;7778;48.792;9.260;2022-12-07T02:58:08;4.10;99.90
15357;DHT22;7778;48.792;9.260;2022-12-07T03:01:08;4.10;99.90
15357;DHT22;7778;48.792;9.260;2022-12-07T03:04:07;4.10;99.90
15357;DHT22;7778;48.792;9.260;2022-12-07T03:07:04;4.10;99.90
15357;DHT22;7778;48.792;9.260;2022-12-07T03:09:58;4.20;99.90
15357;DHT22;7778;48.792;9.260;2022-12-07T03:12:54;4.10;99.90
15357;DHT22;7778;48.792;9.260;2022-12-07T03:15:50;4.00;99.90
15357;DHT22;7778;48.792;9.260;2022-12-07T03:18:44;4.00;99.90
15357;DHT22;7778;48.792;9.260;2022-12-07T03:21:38;4.10;99.90
15357;DHT22;7778;48.792;9.260;2022-12-07T03:24:27;4.10;99.90
15357;DHT22;7778;48.792;9.260;2022-12-07T03:27:16;4.10;99.90
15357;DHT22;7778;48.792;9.260;2022-12-07T03:30:07;4.10;99.90
15357;DHT22;7778;48.792;9.260;2022-12-07T03:32:58;4.10;99.90
15357;DHT22;7778;48.792;9.260;2022-12-07T03:35:49;4.10;99.90
15357;DHT22;7778;48.792;9.260;2022-12-07T03:38:42;4.10;99.90
15357;DHT22;7778;48.792;9.260;2022-12-07T03:41:32;4.00;99.90
15357;DHT22;7778;48.792;9.260;2022-12-07T03:44:22;4.00;99.90
15357;DHT22;7778;48.792;9.260;2022-12-07T03:47:13;4.00;99.90
15357;DHT22;7778;48.792;9.260;2022-12-07T03:50:06;4.10;99.90
15357;DHT22;7778;48.792;9.260;2022-12-07T03:52:58;4.00;99.90
15357;DHT22;7778;48.792;9.260;2022-12-07T03:55:48;4.00;99.90
15357;DHT22;7778;48.792;9.260;2022-12-07T03:58:34;4.00;99.90
15357;DHT22;7778;48.792;9.260;2022-12-07T04:01:22;3.80;99.90
15357;DHT22;7778;48.792;9.260;2022-12-07T04:04:09;3.80;99.90
15357;DHT22;7778;48.792;9.260;2022-12-07T04:06:54;3.80;99.90
15357;DHT22;7778;48.792;9.260;2022-12-07T04:09:39;3.80;99.90
15357;DHT22;7778;48.792;9.260;2022-12-07T04:12:26;3.80;99.90
15357;DHT22;7778;48.792;9.260;2022-12-07T04:15:12;3.80;99.90
15357;DHT22;7778;48.792;9.260;2022-12-07T04:17:58;3.70;99.90
15357;DHT22;7778;48.792;9.260;2022-12-07T04:20:43;3.60;99.90
15357;DHT22;7778;48.792;9.260;2022-12-07T04:23:28;3.60;99.90
15357;DHT22;7778;48.792;9.260;2022-12-07T04:26:14;3.50;99.90
15357;DHT22;7778;48.792;9.260;2022-12-07T04:29:01;3.50;99.90
15357;DHT22;7778;48.792;9.260;2022-12-07T04:31:46;3.30;99.90
15357;DHT22;7778;48.792;9.260;2022-12-07T04:34:32;3.20;99.90
15357;DHT22;7778;48.792;9.260;2022-12-07T04:37:17;3.00;99.90
15357;DHT22;7778;48.792;9.260;2022-12-07T04:40:04;3.00;99.90
15357;DHT22;7778;48.792;9.260;2022-12-07T04:42:51;2.70;99.90
15357;DHT22;7778;48.792;9.260;2022-12-07T04:45:37;2.50;99.90
15357;DHT22;7778;48.792;9.260;2022-12-07T04:48:23;2.30;99.90
15357;DHT22;7778;48.792;9.260;2022-12-07T04:51:08;2.30;99.90
15357;DHT22;7778;48.792;9.260;2022-12-07T04:53:55;2.30;99.90
15357;DHT22;7778;48.792;9.260;2022-12-07T04:56:41;2.40;99.90
15357;DHT22;7778;48.792;9.260;2022-12-07T04:59:27;2.40;99.90
15357;DHT22;7778;48.792;9.260;2022-12-07T05:02:13;2.40;99.90
15357;DHT22;7778;48.792;9.260;2022-12-07T05:04:59;2.60;99.90
15357;DHT22;7778;48.792;9.260;2022-12-07T05:07:44;2.80;99.90
15357;DHT22;7778;48.792;9.260;2022-12-07T05:10:30;2.90;99.90
15357;DHT22;7778;48.792;9.260;2022-12-07T05:13:15;2.80;99.90
15357;DHT22;7778;48.792;9.260;2022-12-07T05:16:00;2.70;99.90
15357;DHT22;7778;48.792;9.260;2022-12-07T05:18:47;2.80;99.90
15357;DHT22;7778;48.792;9.260;2022-12-07T05:21:33;2.70;99.90
15357;DHT22;7778;48.792;9.260;2022-12-07T05:24:19;2.70;99.90
15357;DHT22;7778;48.792;9.260;2022-12-07T05:27:04;2.70;99.90
15357;DHT22;7778;48.792;9.260;2022-12-07T05:29:50;2.70;99.90
15357;DHT22;7778;48.792;9.260;2022-12-07T05:32:36;2.80;99.90
15357;DHT22;7778;48.792;9.260;2022-12-07T05:35:23;3.00;99.90
15357;DHT22;7778;48.792;9.260;2022-12-07T05:38:08;3.00;99.90
15357;DHT22;7778;48.792;9.260;2022-12-07T05:40:54;2.90;99.90
15357;DHT22;7778;48.792;9.260;2022-12-07T05:43:39;2.90;99.90
15357;DHT22;7778;48.792;9.260;2022-12-07T05:46:25;2.90;99.90
15357;DHT22;7778;48.792;9.260;2022-12-07T05:49:10;2.80;99.90
15357;DHT22;7778;48.792;9.260;2022-12-07T05:51:57;2.70;99.90
15357;DHT22;7778;48.792;9.260;2022-12-07T05:54:43;2.70;99.90
15357;DHT22;7778;48.792;9.260;2022-12-07T05:57:29;2.70;99.90
15357;DHT22;7778;48.792;9.260;2022-12-07T06:00:15;2.70;99.90
15357;DHT22;7778;48.792;9.260;2022-12-07T06:03:00;2.60;99.90
15357;DHT22;7778;48.792;9.260;2022-12-07T06:05:46;2.70;99.90
15357;DHT22;7778;48.792;9.260;2022-12-07T06:08:33;2.80;99.90
15357;DHT22;7778;48.792;9.260;2022-12-07T06:11:18;3.00;99.90
15357;DHT22;7778;48.792;9.260;2022-12-07T06:14:22;2.80;99.90
15357;DHT22;7778;48.792;9.260;2022-12-07T06:17:09;2.50;99.90
15357;DHT22;7778;48.792;9.260;2022-12-07T06:19:55;2.70;99.90
15357;DHT22;7778;48.792;9.260;2022-12-07T06:22:40;2.70;99.90
15357;DHT22;7778;48.792;9.260;2022-12-07T06:25:27;2.70;99.90
15357;DHT22;7778;48.792;9.260;2022-12-07T06:28:12;2.60;99.90
15357;DHT22;7778;48.792;9.260;2022-12-07T06:30:59;2.70;99.90
15357;DHT22;7778;48.792;9.260;2022-12-07T06:33:45;2.60;99.90
15357;DHT22;7778;48.792;9.260;2022-12-07T06:36:31;2.40;99.90
15357;DHT22;7778;48.792;9.260;2022-12-07T06:39:17;2.30;99.90
15357;DHT22;7778;48.792;9.260;2022-12-07T06:42:05;2.50;99.90
15357;DHT22;7778;48.792;9.260;2022-12-07T06:44:50;2.70;99.90
15357;DHT22;7778;48.792;9.260;2022-12-07T06:47:36;2.80;99.90
15357;DHT22;7778;48.792;9.260;2022-12-07T06:50:21;2.70;99.90
15357;DHT22;7778;48.792;9.260;2022-12-07T06:53:07;2.70;99.90
15357;DHT22;7778;48.792;9.260;2022-12-07T06:55:52;2.80;99.90
15357;DHT22;7778;48.792;9.260;2022-12-07T06:58:40;2.70;99.90
15357;DHT22;7778;48.792;9.260;2022-12-07T07:01:26;2.70;99.90
15357;DHT22;7778;48.792;9.260;2022-12-07T07:04:11;2.70;99.90
15357;DHT22;7778;48.792;9.260;2022-12-07T07:06:56;2.60;99.90
15357;DHT22;7778;48.792;9.260;2022-12-07T07:09:42;2.50;99.90
15357;DHT22;7778;48.792;9.260;2022-12-07T07:12:27;2.50;99.90
15357;DHT22;7778;48.792;9.260;2022-12-07T07:15:14;2.60;99.90
15357;DHT22;7778;48.792;9.260;2022-12-07T07:18:00;2.60;99.90
15357;DHT22;7778;48.792;9.260;2022-12-07T07:20:47;2.70;99.90
15357;DHT22;7778;48.792;9.260;2022-12-07T07:23:32;2.90;99.90
15357;DHT22;7778;48.792;9.260;2022-12-07T07:26:18;2.90;99.90
15357;DHT22;7778;48.792;9.260;2022-12-07T07:29:03;3.10;99.90
15357;DHT22;7778;48.792;9.260;2022-12-07T07:31:50;3.10;99.90
15357;DHT22;7778;48.792;9.260;2022-12-07T07:34:35;3.10;99.90
15357;DHT22;7778;48.792;9.260;2022-12-07T07:37:21;3.10;99.90
15357;DHT22;7778;48.792;9.260;2022-12-07T07:40:07;3.10;99.90
15357;DHT22;7778;48.792;9.260;2022-12-07T07:42:54;3.20;99.90
15357;DHT22;7778;48.792;9.260;2022-12-07T07:45:39;3.20;99.90
15357;DHT22;7778;48.792;9.260;2022-12-07T07:48:26;3.20;99.90
15357;DHT22;7778;48.792;9.260;2022-12-07T07:51:12;3.20;99.90
15357;DHT22;7778;48.792;9.260;2022-12-07T07:53:58;3.10;99.90
15357;DHT22;7778;48.792;9.260;2022-12-07T07:56:43;3.10;99.90
15357;DHT22;7778;48.792;9.260;2022-12-07T07:59:28;3.20;99.90
15357;DHT22;7778;48.792;9.260;2022-12-07T08:02:15;3.20;99.90
15357;DHT22;7778;48.792;9.260;2022-12-07T08:05:03;3.30;99.90
15357;DHT22;7778;48.792;9.260;2022-12-07T08:07:49;3.30;99.90
15357;DHT22;7778;48.792;9.260;2022-12-07T08:10:35;3.40;99.90
15357;DHT22;7778;48.792;9.260;2022-12-07T08:13:21;3.50;99.90
15357;DHT22;7778;48.792;9.260;2022-12-07T08:16:08;3.60;99.90
15357;DHT22;7778;48.792;9.260;2022-12-07T08:18:54;3.70;99.90
15357;DHT22;7778;48.792;9.260;2022-12-07T08:21:41;3.80;99.90
15357;DHT22;7778;48.792;9.260;2022-12-07T08:24:26;3.90;99.90
15357;DHT22;7778;48.792;9.260;2022-12-07T08:27:12;3.90;99.90
15357;DHT22;7778;48.792;9.260;2022-12-07T08:29:57;4.00;99.90
15357;DHT22;7778;48.792;9.260;2022-12-07T08:32:44;4.10;99.90
15357;DHT22;7778;48.792;9.260;2022-12-07T08:35:32;4.20;99.90
15357;DHT22;7778;48.792;9.260;2022-12-07T08:38:20;4.10;99.90
15357;DHT22;7778;48.792;9.260;2022-12-07T08:41:05;3.90;99.90
15357;DHT22;7778;48.792;9.260;2022-12-07T08:43:52;4.10;99.90
15357;DHT22;7778;48.792;9.260;2022-12-07T08:46:39;4.10;99.90
15357;DHT22;7778;48.792;9.260;2022-12-07T08:49:33;4.40;99.90
15357;DHT22;7778;48.792;9.260;2022-12-07T08:52:21;4.60;99.90
15357;DHT22;7778;48.792;9.260;2022-12-07T08:55:09;4.70;99.90
15357;DHT22;7778;48.792;9.260;2022-12-07T08:57:57;4.80;99.90
15357;DHT22;7778;48.792;9.260;2022-12-07T09:00:43;4.70;99.90
15357;DHT22;7778;48.792;9.260;2022-12-07T09:03:28;4.80;99.90
15357;DHT22;7778;48.792;9.260;2022-12-07T09:06:14;4.90;99.90
15357;DHT22;7778;48.792;9.260;2022-12-07T09:09:01;5.00;99.90
15357;DHT22;7778;48.792;9.260;2022-12-07T09:11:48;5.10;99.90
15357;DHT22;7778;48.792;9.260;2022-12-07T09:14:34;5.10;99.90
15357;DHT22;7778;48.792;9.260;2022-12-07T09:17:19;5.00;99.90
15357;DHT22;7778;48.792;9.260;2022-12-07T09:20:07;5.00;99.90
15357;DHT22;7778;48.792;9.260;2022-12-07T09:22:53;4.90;99.90
15357;DHT22;7778;48.792;9.260;2022-12-07T09:25:38;4.90;99.90
15357;DHT22;7778;48.792;9.260;2022-12-07T09:28:25;5.00;99.90
15357;DHT22;7778;48.792;9.260;2022-12-07T09:31:11;5.20;99.90
15357;DHT22;7778;48.792;9.260;2022-12-07T09:33:58;5.30;99.90
15357;DHT22;7778;48.792;9.260;2022-12-07T09:36:44;5.30;99.90
15357;DHT22;7778;48.792;9.260;2022-12-07T09:39:30;5.30;99.90
15357;DHT22;7778;48.792;9.260;2022-12-07T09:42:27;5.40;99.90
15357;DHT22;7778;48.792;9.260;2022-12-07T09:45:18;5.50;99.90
15357;DHT22;7778;48.792;9.260;2022-12-07T09:48:16;5.50;99.90
15357;DHT22;7778;48.792;9.260;2022-12-07T09:51:13;5.60;99.90
15357;DHT22;7778;48.792;9.260;2022-12-07T09:54:00;5.70;99.90
15357;DHT22;7778;48.792;9.260;2022-12-07T09:56:47;5.80;99.90
15357;DHT22;7778;48.792;9.260;2022-12-07T09:59:35;6.00;99.90
15357;DHT22;7778;48.792;9.260;2022-12-07T10:02:35;6.10;99.90
15357;DHT22;7778;48.792;9.260;2022-12-07T10:05:24;6.10;99.90
15357;DHT22;7778;48.792;9.260;2022-12-07T10:08:12;6.10;99.90
15357;DHT22;7778;48.792;9.260;2022-12-07T10:11:01;6.10;99.90
15357;DHT22;7778;48.792;9.260;2022-12-07T10:13:49;6.20;99.90
15357;DHT22;7778;48.792;9.260;2022-12-07T10:16:39;6.20;99.90
15357;DHT22;7778;48.792;9.260;2022-12-07T10:19:29;6.20;99.90
15357;DHT22;7778;48.792;9.260;2022-12-07T10:22:16;6.10;99.90
15357;DHT22;7778;48.792;9.260;2022-12-07T10:25:09;6.10;99.90
15357;DHT22;7778;48.792;9.260;2022-12-07T10:28:15;6.10;99.90
15357;DHT22;7778;48.792;9.260;2022-12-07T10:31:03;6.10;99.90
15357;DHT22;7778;48.792;9.260;2022-12-07T10:34:01;6.00;99.90
15357;DHT22;7778;48.792;9.260;2022-12-07T10:36:48;6.00;99.90
15357;DHT22;7778;48.792;9.260;2022-12-07T10:39:41;5.90;99.90
15357;DHT22;7778;48.792;9.260;2022-12-07T10:42:29;5.90;99.90
15357;DHT22;7778;48.792;9.260;2022-12-07T10:45:17;6.00;99.90
15357;DHT22;7778;48.792;9.260;2022-12-07T10:48:08;5.80;99.90
15357;DHT22;7778;48.792;9.260;2022-12-07T10:51:04;5.90;99.90
15357;DHT22;7778;48.792;9.260;2022-12-07T10:54:03;5.80;99.90
15357;DHT22;7778;48.792;9.260;2022-12-07T10:57:14;5.90;99.90
15357;DHT22;7778;48.792;9.260;2022-12-07T11:00:18;5.90;99.90
15357;DHT22;7778;48.792;9.260;2022-12-07T11:06:28;5.70;99.90
15357;DHT22;7778;48.792;9.260;2022-12-07T11:09:49;5.60;99.90
15357;DHT22;7778;48.792;9.260;2022-12-07T11:12:56;5.60;99.90
15357;DHT22;7778;48.792;9.260;2022-12-07T11:15:57;5.60;99.90
15357;DHT22;7778;48.792;9.260;2022-12-07T11:19:23;5.70;99.90
15357;DHT22;7778;48.792;9.260;2022-12-07T11:22:18;5.70;99.90
15357;DHT22;7778;48.792;9.260;2022-12-07T11:25:19;5.70;99.90
15357;DHT22;7778;48.792;9.260;2022-12-07T11:28:23;5.60;99.90
15357;DHT22;7778;48.792;9.260;2022-12-07T11:31:20;5.50;99.90
15357;DHT22;7778;48.792;9.260;2022-12-07T11:34:16;5.60;99.90
15357;DHT22;7778;48.792;9.260;2022-12-07T11:37:11;5.50;99.90
15357;DHT22;7778;48.792;9.260;2022-12-07T11:40:02;5.50;99.90
15357;DHT22;7778;48.792;9.260;2022-12-07T11:42:53;5.80;99.90
15357;DHT22;7778;48.792;9.260;2022-12-07T11:45:46;5.60;99.90
15357;DHT22;7778;48.792;9.260;2022-12-07T11:48:38;5.70;99.90
15357;DHT22;7778;48.792;9.260;2022-12-07T11:51:28;5.60;99.90
15357;DHT22;7778;48.792;9.260;2022-12-07T11:54:18;5.50;99.90
15357;DHT22;7778;48.792;9.260;2022-12-07T11:57:12;5.40;99.90
15357;DHT22;7778;48.792;9.260;2022-12-07T12:00:06;5.30;99.90
15357;DHT22;7778;48.792;9.260;2022-12-07T12:03:01;5.20;99.90
15357;DHT22;7778;48.792;9.260;2022-12-07T12:05:49;5.20;99.90
15357;DHT22;7778;48.792;9.260;2022-12-07T12:08:39;5.10;99.90
15357;DHT22;7778;48.792;9.260;2022-12-07T12:11:39;5.10;99.90
15357;DHT22;7778;48.792;9.260;2022-12-07T12:14:48;5.10;99.90
15357;DHT22;7778;48.792;9.260;2022-12-07T12:18:01;5.00;99.90
15357;DHT22;7778;48.792;9.260;2022-12-07T12:21:00;5.10;99.90
15357;DHT22;7778;48.792;9.260;2022-12-07T12:23:50;5.20;99.90
15357;DHT22;7778;48.792;9.260;2022-12-07T12:26:40;5.10;99.90
15357;DHT22;7778;48.792;9.260;2022-12-07T12:29:36;5.10;99.90
15357;DHT22;7778;48.792;9.260;2022-12-07T12:32:30;5.20;99.90
15357;DHT22;7778;48.792;9.260;2022-12-07T12:35:30;5.20;99.90
15357;DHT22;7778;48.792;9.260;2022-12-07T12:38:31;5.20;99.90
15357;DHT22;7778;48.792;9.260;2022-12-07T12:41:52;5.40;99.90
15357;DHT22;7778;48.792;9.260;2022-12-07T12:45:17;5.30;99.90
15357;DHT22;7778;48.792;9.260;2022-12-07T12:48:28;5.30;99.90
15357;DHT22;7778;48.792;9.260;2022-12-07T12:51:36;5.50;99.90
15357;DHT22;7778;48.792;9.260;2022-12-07T12:54:26;5.30;99.90
15357;DHT22;7778;48.792;9.260;2022-12-07T12:57:15;5.30;99.90
15357;DHT22;7778;48.792;9.260;2022-12-07T13:00:17;5.20;99.90
15357;DHT22;7778;48.792;9.260;2022-12-07T13:03:04;5.20;99.90
15357;DHT22;7778;48.792;9.260;2022-12-07T13:06:19;5.50;99.90
15357;DHT22;7778;48.792;9.260;2022-12-07T13:09:23;5.50;99.90
15357;DHT22;7778;48.792;9.260;2022-12-07T13:12:13;5.60;99.90
15357;DHT22;7778;48.792;9.260;2022-12-07T13:14:59;5.60;99.90
15357;DHT22;7778;48.792;9.260;2022-12-07T13:18:02;5.50;99.90
15357;DHT22;7778;48.792;9.260;2022-12-07T13:20:53;5.40;99.90
15357;DHT22;7778;48.792;9.260;2022-12-07T13:23:54;5.40;99.90
15357;DHT22;7778;48.792;9.260;2022-12-07T13:26:43;5.40;99.90
15357;DHT22;7778;48.792;9.260;2022-12-07T13:29:36;5.40;99.90
15357;DHT22;7778;48.792;9.260;2022-12-07T13:32:24;5.40;99.90
15357;DHT22;7778;48.792;9.260;2022-12-07T13:35:33;5.40;99.90
15357;DHT22;7778;48.792;9.260;2022-12-07T13:38:25;5.40;99.90
15357;DHT22;7778;48.792;9.260;2022-12-07T13:41:15;5.30;99.90
15357;DHT22;7778;48.792;9.260;2022-12-07T13:44:08;5.30;99.90
15357;DHT22;7778;48.792;9.260;2022-12-07T13:47:01;5.30;99.90
15357;DHT22;7778;48.792;9.260;2022-12-07T13:49:53;5.30;99.90
15357;DHT22;7778;48.792;9.260;2022-12-07T13:52:43;5.20;99.90
15357;DHT22;7778;48.792;9.260;2022-12-07T13:55:30;5.20;99.90
15357;DHT22;7778;48.792;9.260;2022-12-07T13:58:16;5.30;99.90
15357;DHT22;7778;48.792;9.260;2022-12-07T14:01:03;5.40;99.90
15357;DHT22;7778;48.792;9.260;2022-12-07T14:03:50;5.70;99.90
15357;DHT22;7778;48.792;9.260;2022-12-07T14:06:36;5.70;99.90
15357;DHT22;7778;48.792;9.260;2022-12-07T14:09:32;5.70;99.90
15357;DHT22;7778;48.792;9.260;2022-12-07T14:12:18;5.50;99.90
15357;DHT22;7778;48.792;9.260;2022-12-07T14:15:05;5.50;99.90
15357;DHT22;7778;48.792;9.260;2022-12-07T14:18:03;5.50;99.90
15357;DHT22;7778;48.792;9.260;2022-12-07T14:20:48;5.40;99.90
15357;DHT22;7778;48.792;9.260;2022-12-07T14:23:34;5.40;99.90
15357;DHT22;7778;48.792;9.260;2022-12-07T14:26:20;5.50;99.90
15357;DHT22;7778;48.792;9.260;2022-12-07T14:29:21;5.50;99.90
15357;DHT22;7778;48.792;9.260;2022-12-07T14:32:22;5.60;99.90
15357;DHT22;7778;48.792;9.260;2022-12-07T14:35:15;5.60;99.90
15357;DHT22;7778;48.792;9.260;2022-12-07T14:38:02;5.60;99.90
15357;DHT22;7778;48.792;9.260;2022-12-07T14:40:48;5.60;99.90
15357;DHT22;7778;48.792;9.260;2022-12-07T14:43:33;5.50;99.90
15357;DHT22;7778;48.792;9.260;2022-12-07T14:46:19;5.50;99.90
15357;DHT22;7778;48.792;9.260;2022-12-07T14:49:04;5.50;99.90
15357;DHT22;7778;48.792;9.260;2022-12-07T14:51:51;5.40;99.90
15357;DHT22;7778;48.792;9.260;2022-12-07T14:54:37;5.40;99.90
15357;DHT22;7778;48.792;9.260;2022-12-07T14:57:24;5.40;99.90
15357;DHT22;7778;48.792;9.260;2022-12-07T15:00:15;5.40;99.90
15357;DHT22;7778;48.792;9.260;2022-12-07T15:03:01;5.40;99.90
15357;DHT22;7778;48.792;9.260;2022-12-07T15:05:47;5.30;99.90
15357;DHT22;7778;48.792;9.260;2022-12-07T15:08:34;5.10;99.90
15357;DHT22;7778;48.792;9.260;2022-12-07T15:11:19;5.10;99.90
15357;DHT22;7778;48.792;9.260;2022-12-07T15:14:05;5.00;99.90
15357;DHT22;7778;48.792;9.260;2022-12-07T15:16:55;4.90;99.90
15357;DHT22;7778;48.792;9.260;2022-12-07T15:19:40;4.90;99.90
15357;DHT22;7778;48.792;9.260;2022-12-07T15:22:26;4.80;99.90
15357;DHT22;7778;48.792;9.260;2022-12-07T15:25:15;4.90;99.90
15357;DHT22;7778;48.792;9.260;2022-12-07T15:28:01;4.80;99.90
15357;DHT22;7778;48.792;9.260;2022-12-07T15:30:46;4.70;99.90
15357;DHT22;7778;48.792;9.260;2022-12-07T15:33:32;4.80;99.90
15357;DHT22;7778;48.792;9.260;2022-12-07T15:36:20;4.70;99.90
15357;DHT22;7778;48.792;9.260;2022-12-07T15:39:06;4.70;99.90
15357;DHT22;7778;48.792;9.260;2022-12-07T15:41:53;4.80;99.90
15357;DHT22;7778;48.792;9.260;2022-12-07T15:44:38;4.70;99.90
15357;DHT22;7778;48.792;9.260;2022-12-07T15:47:43;4.70;99.90
15357;DHT22;7778;48.792;9.260;2022-12-07T15:50:29;4.70;99.90
15357;DHT22;7778;48.792;9.260;2022-12-07T15:53:15;4.60;99.90
15357;DHT22;7778;48.792;9.260;2022-12-07T15:56:01;4.50;99.90
15357;DHT22;7778;48.792;9.260;2022-12-07T15:58:48;4.50;99.90
15357;DHT22;7778;48.792;9.260;2022-12-07T16:01:33;4.60;99.90
15357;DHT22;7778;48.792;9.260;2022-12-07T16:04:19;4.60;99.90
15357;DHT22;7778;48.792;9.260;2022-12-07T16:07:04;4.60;99.90
15357;DHT22;7778;48.792;9.260;2022-12-07T16:09:50;4.60;99.90
15357;DHT22;7778;48.792;9.260;2022-12-07T16:12:35;4.50;99.90
15357;DHT22;7778;48.792;9.260;2022-12-07T16:15:22;4.50;99.90
15357;DHT22;7778;48.792;9.260;2022-12-07T16:18:08;4.80;99.90
15357;DHT22;7778;48.792;9.260;2022-12-07T16:20:54;4.70;99.90
15357;DHT22;7778;48.792;9.260;2022-12-07T16:23:40;4.50;99.90
15357;DHT22;7778;48.792;9.260;2022-12-07T16:26:26;4.40;99.90
15357;DHT22;7778;48.792;9.260;2022-12-07T16:29:12;4.40;99.90
15357;DHT22;7778;48.792;9.260;2022-12-07T16:31:59;4.30;99.90
15357;DHT22;7778;48.792;9.260;2022-12-07T16:34:45;4.20;99.90
15357;DHT22;7778;48.792;9.260;2022-12-07T16:37:31;4.20;99.90
15357;DHT22;7778;48.792;9.260;2022-12-07T16:40:17;4.40;99.90
15357;DHT22;7778;48.792;9.260;2022-12-07T16:43:02;4.90;99.90
15357;DHT22;7778;48.792;9.260;2022-12-07T16:45:48;4.80;99.90
15357;DHT22;7778;48.792;9.260;2022-12-07T16:48:37;4.70;99.90
15357;DHT22;7778;48.792;9.260;2022-12-07T16:51:23;4.60;99.90
15357;DHT22;7778;48.792;9.260;2022-12-07T16:54:10;4.40;99.90
15357;DHT22;7778;48.792;9.260;2022-12-07T16:56:56;4.20;99.90
15357;DHT22;7778;48.792;9.260;2022-12-07T16:59:41;4.10;99.90
15357;DHT22;7778;48.792;9.260;2022-12-07T17:02:26;4.10;99.90
15357;DHT22;7778;48.792;9.260;2022-12-07T17:05:13;4.20;99.90
15357;DHT22;7778;48.792;9.260;2022-12-07T17:07:59;4.00;99.90
15357;DHT22;7778;48.792;9.260;2022-12-07T17:10:46;3.90;99.90
15357;DHT22;7778;48.792;9.260;2022-12-07T17:13:31;3.80;99.90
15357;DHT22;7778;48.792;9.260;2022-12-07T17:16:35;3.70;99.90
15357;DHT22;7778;48.792;9.260;2022-12-07T17:19:21;3.60;99.90
15357;DHT22;7778;48.792;9.260;2022-12-07T17:22:08;3.40;99.90
15357;DHT22;7778;48.792;9.260;2022-12-07T17:24:55;3.30;99.90
15357;DHT22;7778;48.792;9.260;2022-12-07T17:27:41;3.30;99.90
15357;DHT22;7778;48.792;9.260;2022-12-07T17:30:26;3.20;99.90
15357;DHT22;7778;48.792;9.260;2022-12-07T17:33:12;3.10;99.90
15357;DHT22;7778;48.792;9.260;2022-12-07T17:35:57;3.40;99.90
15357;DHT22;7778;48.792;9.260;2022-12-07T17:38:44;3.50;99.90
15357;DHT22;7778;48.792;9.260;2022-12-07T17:41:31;3.70;99.90
15357;DHT22;7778;48.792;9.260;2022-12-07T17:44:35;3.70;99.90
15357;DHT22;7778;48.792;9.260;2022-12-07T17:47:20;3.80;99.90
15357;DHT22;7778;48.792;9.260;2022-12-07T17:50:07;3.90;99.90
15357;DHT22;7778;48.792;9.260;2022-12-07T17:52:53;3.90;99.90
15357;DHT22;7778;48.792;9.260;2022-12-07T17:56:00;3.90;99.90
15357;DHT22;7778;48.792;9.260;2022-12-07T17:58:46;3.90;99.90
15357;DHT22;7778;48.792;9.260;2022-12-07T18:01:32;4.10;99.90
15357;DHT22;7778;48.792;9.260;2022-12-07T18:04:17;4.00;99.90
15357;DHT22;7778;48.792;9.260;2022-12-07T18:07:03;4.30;99.90
15357;DHT22;7778;48.792;9.260;2022-12-07T18:09:49;4.40;99.90
15357;DHT22;7778;48.792;9.260;2022-12-07T18:12:36;4.30;99.90
15357;DHT22;7778;48.792;9.260;2022-12-07T18:15:23;4.20;99.90
15357;DHT22;7778;48.792;9.260;2022-12-07T18:18:08;4.10;99.90
15357;DHT22;7778;48.792;9.260;2022-12-07T18:20:54;4.00;99.90
15357;DHT22;7778;48.792;9.260;2022-12-07T18:23:40;4.00;99.90
15357;DHT22;7778;48.792;9.260;2022-12-07T18:26:25;4.00;99.90
15357;DHT22;7778;48.792;9.260;2022-12-07T18:29:14;4.00;99.90
15357;DHT22;7778;48.792;9.260;2022-12-07T18:32:01;4.10;99.90
15357;DHT22;7778;48.792;9.260;2022-12-07T18:34:48;4.00;99.90
15357;DHT22;7778;48.792;9.260;2022-12-07T18:37:33;4.00;99.90